PWSweather.com
Personal Weather Stations
Station Observations
FAUSKE
Nordland, Norway, FauskeNO 8200

Nordland, NorwayFauskeNO 8200

Lat: 67.2607586, Lon: 15.4114204

Elevation: 40

Station Type: Davis Vantage PRO2

http://www.bjornli.net/weather.html

Latest ConditionsUpdated 10:10:00 PM GMT+01:01 Thursday, Oct 18, 2018
Currently Today's Max Today's Min Today's Average
Temperature 46.0°F7.8°C 46.3°F7.9°C 41.6°F5.3°C 44.3°F6.8°C
Dew Point 44.4°F6.9°C 44.5°F6.9°C 37.7°F3.2°C 40.3°F4.6°C
Winds 11.0 mph WSW17.7 kmh WSW 20.0 mph -32.2 kmh - - 4.3 mph 6.9 kmh
Wind Gusts 22.0 mph35.4 kmh 22.0 mph35.4 kmh - -
Humidity 94% 95% 74% 86%
Pressure 29.64 in1003.7 mb 29.64 in1003.7 mb 29.53 in1000.0 mb -
Hour Temp Dew Point Humidity Winds Wind Gusts Pressure Precip Precip Rate Daily Precip Total
10:10 PM 46.0°F7.8°C 44.4°F6.9°C 94% 11.0 mph WSW17.7 kmh WSW 22.0 mph35.4 kmh 29.64 in1003.7 mb 0.02 in0.5 mm 0.00 in0.0 mm 0.27 in6.9 mm
10:00 PM 46.0°F7.8°C 44.4°F6.9°C 94% Calm Calm 3.0 mph4.8 kmh 29.63 in1003.4 mb 0.02 in0.5 mm 0.00 in0.0 mm 0.27 in6.9 mm
09:40 PM 45.8°F7.7°C 44.5°F6.9°C 95% 7.0 mph WSW11.3 kmh WSW 19.0 mph30.6 kmh 29.63 in1003.4 mb 0.04 in1.0 mm 0.00 in0.0 mm 0.27 in6.9 mm
09:30 PM 45.8°F7.7°C 44.5°F6.9°C 95% 4.0 mph NW6.4 kmh NW 4.0 mph6.4 kmh 29.62 in1003.0 mb 0.04 in1.0 mm 0.00 in0.0 mm 0.27 in6.9 mm
09:09 PM 45.7°F7.6°C 44.1°F6.7°C 94% 5.0 mph SW8.0 kmh SW 18.0 mph29.0 kmh 29.61 in1002.7 mb 0.06 in1.5 mm 0.00 in0.0 mm 0.27 in6.9 mm
09:00 PM 45.8°F7.7°C 44.2°F6.8°C 94% 9.0 mph WSW14.5 kmh WSW 12.0 mph19.3 kmh 29.61 in1002.7 mb 0.06 in1.5 mm 0.00 in0.0 mm 0.27 in6.9 mm
08:40 PM 45.5°F7.5°C 43.9°F6.6°C 94% 13.0 mph WSW20.9 kmh WSW 19.0 mph30.6 kmh 29.59 in1002.0 mb 0.06 in1.5 mm 0.00 in0.0 mm 0.27 in6.9 mm
08:30 PM 45.5°F7.5°C 43.9°F6.6°C 94% 2.0 mph SW3.2 kmh SW 7.0 mph11.3 kmh 29.59 in1002.0 mb 0.06 in1.5 mm 0.00 in0.0 mm 0.27 in6.9 mm
08:10 PM 45.6°F7.6°C 44.0°F6.7°C 94% 7.0 mph WSW11.3 kmh WSW 15.0 mph24.1 kmh 29.58 in1001.7 mb 0.06 in1.5 mm 0.12 in3.0 mm 0.27 in6.9 mm
08:00 PM 45.5°F7.5°C 43.6°F6.4°C 93% 9.0 mph WSW14.5 kmh WSW 11.0 mph17.7 kmh 29.58 in1001.7 mb 0.04 in1.0 mm 0.00 in0.0 mm 0.25 in6.4 mm
07:40 PM 45.3°F7.4°C 43.7°F6.5°C 94% 3.0 mph SW4.8 kmh SW 15.0 mph24.1 kmh 29.58 in1001.7 mb 0.06 in1.5 mm 0.06 in1.5 mm 0.25 in6.4 mm
07:30 PM 45.2°F7.3°C 43.6°F6.4°C 94% 6.0 mph W9.7 kmh W 7.0 mph11.3 kmh 29.58 in1001.7 mb 0.05 in1.3 mm 0.00 in0.0 mm 0.24 in6.1 mm
07:10 PM 44.8°F7.1°C 43.2°F6.2°C 94% 7.0 mph WSW11.3 kmh WSW 14.0 mph22.5 kmh 29.57 in1001.4 mb 0.06 in1.5 mm 0.06 in1.5 mm 0.24 in6.1 mm
07:00 PM 44.6°F7.0°C 43.0°F6.1°C 94% 4.0 mph SW6.4 kmh SW 5.0 mph8.0 kmh 29.57 in1001.4 mb 0.05 in1.3 mm 0.00 in0.0 mm 0.23 in5.8 mm
06:40 PM 44.8°F7.1°C 43.2°F6.2°C 94% Calm Calm 12.0 mph19.3 kmh 29.57 in1001.4 mb 0.09 in2.3 mm 0.06 in1.5 mm 0.23 in5.8 mm
06:30 PM 44.5°F6.9°C 42.9°F6.1°C 94% 4.0 mph WSW6.4 kmh WSW 9.0 mph14.5 kmh 29.57 in1001.4 mb 0.08 in2.0 mm 0.00 in0.0 mm 0.22 in5.6 mm
06:10 PM 43.5°F6.4°C 41.9°F5.5°C 94% 7.0 mph SSW11.3 kmh SSW 10.0 mph16.1 kmh 29.56 in1001.0 mb 0.09 in2.3 mm 0.06 in1.5 mm 0.22 in5.6 mm
06:00 PM 43.5°F6.4°C 41.6°F5.3°C 93% Calm Calm -- 29.56 in1001.0 mb 0.08 in2.0 mm 0.00 in0.0 mm 0.21 in5.3 mm
05:40 PM 43.5°F6.4°C 41.6°F5.3°C 93% Calm Calm 9.0 mph14.5 kmh 29.56 in1001.0 mb 0.10 in2.5 mm 0.12 in3.0 mm 0.21 in5.3 mm
05:30 PM 43.5°F6.4°C 41.6°F5.3°C 93% 1.0 mph S1.6 kmh S 1.0 mph1.6 kmh 29.56 in1001.0 mb 0.08 in2.0 mm 0.00 in0.0 mm 0.19 in4.8 mm
05:09 PM 43.2°F6.2°C 41.3°F5.2°C 93% 3.0 mph S4.8 kmh S 11.0 mph17.7 kmh 29.55 in1000.7 mb 0.13 in3.3 mm 0.00 in0.0 mm 0.19 in4.8 mm
05:00 PM 43.2°F6.2°C 41.3°F5.2°C 93% 4.0 mph S6.4 kmh S 4.0 mph6.4 kmh 29.55 in1000.7 mb 0.13 in3.3 mm 0.00 in0.0 mm 0.19 in4.8 mm
04:40 PM 43.3°F6.3°C 41.1°F5.1°C 92% 9.0 mph S14.5 kmh S 12.0 mph19.3 kmh 29.55 in1000.7 mb 0.17 in4.3 mm 0.24 in6.1 mm 0.19 in4.8 mm
04:30 PM 43.4°F6.3°C 41.2°F5.1°C 92% 9.0 mph S14.5 kmh S 12.0 mph19.3 kmh 29.54 in1000.3 mb 0.13 in3.3 mm 0.06 in1.5 mm 0.15 in3.8 mm
04:10 PM 43.3°F6.3°C 41.1°F5.1°C 92% 11.0 mph S17.7 kmh S 14.0 mph22.5 kmh 29.54 in1000.3 mb 0.11 in2.8 mm 0.12 in3.0 mm 0.13 in3.3 mm
04:00 PM 43.3°F6.3°C 40.9°F4.9°C 91% 7.0 mph S11.3 kmh S 9.0 mph14.5 kmh 29.54 in1000.3 mb 0.09 in2.3 mm 0.00 in0.0 mm 0.11 in2.8 mm
03:40 PM 43.4°F6.3°C 40.7°F4.8°C 90% 11.0 mph S17.7 kmh S 15.0 mph24.1 kmh 29.54 in1000.3 mb 0.10 in2.5 mm 0.06 in1.5 mm 0.11 in2.8 mm
03:30 PM 43.3°F6.3°C 40.9°F4.9°C 91% 6.0 mph S9.7 kmh S 11.0 mph17.7 kmh 29.54 in1000.3 mb 0.09 in2.3 mm 0.00 in0.0 mm 0.10 in2.5 mm
03:09 PM 43.1°F6.2°C 40.7°F4.8°C 91% 8.0 mph S12.9 kmh S 14.0 mph22.5 kmh 29.54 in1000.3 mb 0.09 in2.3 mm 0.00 in0.0 mm 0.10 in2.5 mm
03:00 PM 43.1°F6.2°C 40.7°F4.8°C 91% 7.0 mph S11.3 kmh S 8.0 mph12.9 kmh 29.54 in1000.3 mb 0.09 in2.3 mm 0.02 in0.5 mm 0.10 in2.5 mm
02:40 PM 43.4°F6.3°C 40.7°F4.8°C 90% 5.0 mph S8.0 kmh S 12.0 mph19.3 kmh 29.54 in1000.3 mb 0.08 in2.0 mm 0.12 in3.0 mm 0.09 in2.3 mm
02:30 PM 43.5°F6.4°C 40.8°F4.9°C 90% 6.0 mph S9.7 kmh S 10.0 mph16.1 kmh 29.53 in1000.0 mb 0.06 in1.5 mm 0.00 in0.0 mm 0.07 in1.8 mm
02:09 PM 43.6°F6.4°C 40.9°F4.9°C 90% 10.0 mph S16.1 kmh S 13.0 mph20.9 kmh 29.54 in1000.3 mb 0.06 in1.5 mm 0.07 in1.8 mm 0.07 in1.8 mm
02:00 PM 43.7°F6.5°C 40.7°F4.8°C 89% 2.0 mph SSW3.2 kmh SSW 6.0 mph9.7 kmh 29.53 in1000.0 mb 0.05 in1.3 mm 0.03 in0.8 mm 0.06 in1.5 mm
01:40 PM 44.0°F6.7°C 40.4°F4.7°C 87% 4.0 mph SSW6.4 kmh SSW 13.0 mph20.9 kmh 29.53 in1000.0 mb 0.03 in0.8 mm 0.06 in1.5 mm 0.04 in1.0 mm
01:30 PM 44.3°F6.8°C 40.4°F4.7°C 86% 1.0 mph SSW1.6 kmh SSW 3.0 mph4.8 kmh 29.53 in1000.0 mb 0.02 in0.5 mm 0.03 in0.8 mm 0.03 in0.8 mm
01:09 PM 44.8°F7.1°C 40.0°F4.4°C 83% 5.0 mph S8.0 kmh S 11.0 mph17.7 kmh 29.53 in1000.0 mb 0.01 in0.3 mm 0.00 in0.0 mm 0.02 in0.5 mm
01:00 PM 44.9°F7.2°C 40.1°F4.5°C 83% 4.0 mph S6.4 kmh S 6.0 mph9.7 kmh 29.53 in1000.0 mb 0.01 in0.3 mm 0.00 in0.0 mm 0.02 in0.5 mm
12:40 PM 45.3°F7.4°C 39.5°F4.2°C 80% 6.0 mph SSW9.7 kmh SSW 14.0 mph22.5 kmh 29.53 in1000.0 mb 0.01 in0.3 mm 0.06 in1.5 mm 0.02 in0.5 mm
12:30 PM 45.5°F7.5°C 39.4°F4.1°C 79% Calm Calm 5.0 mph8.0 kmh 29.53 in1000.0 mb 0.00 in0.0 mm 0.00 in0.0 mm 0.01 in0.3 mm
12:09 PM 46.0°F7.8°C 38.9°F3.8°C 76% 9.0 mph SSW14.5 kmh SSW 17.0 mph27.4 kmh 29.53 in1000.0 mb 0.00 in0.0 mm 0.00 in0.0 mm 0.01 in0.3 mm
12:00 PM 46.1°F7.8°C 38.6°F3.7°C 75% 11.0 mph SSW17.7 kmh SSW 12.0 mph19.3 kmh 29.53 in1000.0 mb 0.00 in0.0 mm 0.00 in0.0 mm 0.01 in0.3 mm
11:40 AM 46.2°F7.9°C 38.7°F3.7°C 75% 20.0 mph S32.2 kmh S 20.0 mph32.2 kmh 29.53 in1000.0 mb 0.00 in0.0 mm 0.00 in0.0 mm 0.01 in0.3 mm
11:30 AM 46.1°F7.8°C 38.6°F3.7°C 75% 5.0 mph SSW8.0 kmh SSW 7.0 mph11.3 kmh 29.53 in1000.0 mb 0.00 in0.0 mm 0.00 in0.0 mm 0.01 in0.3 mm
11:10 AM 46.3°F7.9°C 38.5°F3.6°C 74% 9.0 mph S14.5 kmh S 11.0 mph17.7 kmh 29.54 in1000.3 mb 0.00 in0.0 mm 0.00 in0.0 mm 0.01 in0.3 mm
11:00 AM 46.1°F7.8°C 38.3°F3.5°C 74% 4.0 mph S6.4 kmh S 6.0 mph9.7 kmh 29.54 in1000.3 mb 0.00 in0.0 mm 0.00 in0.0 mm 0.01 in0.3 mm
10:40 AM 45.9°F7.7°C 38.4°F3.6°C 75% 9.0 mph S14.5 kmh S 18.0 mph29.0 kmh 29.55 in1000.7 mb 0.00 in0.0 mm 0.00 in0.0 mm 0.01 in0.3 mm
10:30 AM 46.0°F7.8°C 38.2°F3.4°C 74% 11.0 mph S17.7 kmh S 14.0 mph22.5 kmh 29.55 in1000.7 mb 0.00 in0.0 mm 0.00 in0.0 mm 0.01 in0.3 mm
10:10 AM 45.9°F7.7°C 38.1°F3.4°C 74% 11.0 mph SSE17.7 kmh SSE 15.0 mph24.1 kmh 29.56 in1001.0 mb 0.00 in0.0 mm 0.00 in0.0 mm 0.01 in0.3 mm
10:00 AM 45.6°F7.6°C 38.2°F3.4°C 75% 10.0 mph S16.1 kmh S 15.0 mph24.1 kmh 29.56 in1001.0 mb 0.00 in0.0 mm 0.00 in0.0 mm 0.01 in0.3 mm
09:40 AM 44.2°F6.8°C 39.4°F4.1°C 83% Calm Calm 6.0 mph9.7 kmh 29.57 in1001.4 mb 0.00 in0.0 mm 0.00 in0.0 mm 0.01 in0.3 mm
09:30 AM 44.3°F6.8°C 40.1°F4.5°C 85% Calm Calm -- 29.57 in1001.4 mb 0.00 in0.0 mm 0.00 in0.0 mm 0.01 in0.3 mm
09:09 AM 43.1°F6.2°C 40.1°F4.5°C 89% Calm Calm -- 29.57 in1001.4 mb 0.00 in0.0 mm 0.00 in0.0 mm 0.01 in0.3 mm
09:00 AM 42.6°F5.9°C 39.6°F4.2°C 89% Calm Calm -- 29.57 in1001.4 mb 0.00 in0.0 mm 0.00 in0.0 mm 0.01 in0.3 mm
08:40 AM 42.5°F5.8°C 39.5°F4.2°C 89% Calm Calm -- 29.58 in1001.7 mb 0.00 in0.0 mm 0.00 in0.0 mm 0.01 in0.3 mm
08:30 AM 42.3°F5.7°C 39.6°F4.2°C 90% Calm Calm -- 29.57 in1001.4 mb 0.00 in0.0 mm 0.00 in0.0 mm 0.01 in0.3 mm
08:09 AM 41.6°F5.3°C 38.6°F3.7°C 89% 2.0 mph SE3.2 kmh SE 3.0 mph4.8 kmh 29.57 in1001.4 mb 0.01 in0.3 mm 0.00 in0.0 mm 0.01 in0.3 mm
08:00 AM 41.9°F5.5°C 38.6°F3.7°C 88% Calm Calm -- 29.57 in1001.4 mb 0.01 in0.3 mm 0.00 in0.0 mm 0.01 in0.3 mm
07:39 AM 42.4°F5.8°C 38.8°F3.8°C 87% Calm Calm -- 29.57 in1001.4 mb 0.01 in0.3 mm 0.00 in0.0 mm 0.01 in0.3 mm
07:30 AM 42.7°F5.9°C 38.8°F3.8°C 86% Calm Calm -- 29.57 in1001.4 mb 0.01 in0.3 mm 0.03 in0.8 mm 0.01 in0.3 mm
07:10 AM 43.7°F6.5°C 38.9°F3.8°C 83% Calm Calm 1.0 mph1.6 kmh 29.57 in1001.4 mb 0.00 in0.0 mm 0.00 in0.0 mm 0.00 in0.0 mm
07:00 AM 44.6°F7.0°C 39.1°F3.9°C 81% 1.0 mph WSW1.6 kmh WSW 1.0 mph1.6 kmh 29.57 in1001.4 mb 0.00 in0.0 mm 0.00 in0.0 mm 0.00 in0.0 mm
06:40 AM 45.1°F7.3°C 39.0°F3.9°C 79% 1.0 mph SW1.6 kmh SW 14.0 mph22.5 kmh 29.58 in1001.7 mb 0.00 in0.0 mm 0.00 in0.0 mm 0.00 in0.0 mm
06:30 AM 45.6°F7.6°C 39.2°F4.0°C 78% 6.0 mph SSW9.7 kmh SSW 6.0 mph9.7 kmh 29.57 in1001.4 mb 0.00 in0.0 mm 0.00 in0.0 mm 0.00 in0.0 mm
06:10 AM 45.8°F7.7°C 39.0°F3.9°C 77% 16.0 mph S25.7 kmh S 20.0 mph32.2 kmh 29.56 in1001.0 mb 0.00 in0.0 mm 0.00 in0.0 mm 0.00 in0.0 mm
06:00 AM 45.1°F7.3°C 39.6°F4.2°C 81% 12.0 mph S19.3 kmh S 14.0 mph22.5 kmh 29.56 in1001.0 mb 0.00 in0.0 mm 0.00 in0.0 mm 0.00 in0.0 mm
05:40 AM 43.4°F6.3°C 38.9°F3.8°C 84% 7.0 mph SE11.3 kmh SE 8.0 mph12.9 kmh 29.57 in1001.4 mb 0.00 in0.0 mm 0.00 in0.0 mm 0.00 in0.0 mm
05:30 AM 42.6°F5.9°C 38.4°F3.6°C 85% 3.0 mph SE4.8 kmh SE 4.0 mph6.4 kmh 29.57 in1001.4 mb 0.00 in0.0 mm 0.00 in0.0 mm 0.00 in0.0 mm
05:10 AM 42.2°F5.7°C 37.7°F3.2°C 84% Calm Calm 9.0 mph14.5 kmh 29.58 in1001.7 mb 0.00 in0.0 mm 0.00 in0.0 mm 0.00 in0.0 mm
05:00 AM 42.7°F5.9°C 37.9°F3.3°C 83% 1.0 mph SSE1.6 kmh SSE 1.0 mph1.6 kmh 29.58 in1001.7 mb 0.00 in0.0 mm 0.00 in0.0 mm 0.00 in0.0 mm
04:40 AM 43.9°F6.6°C 38.5°F3.6°C 81% Calm Calm -- 29.59 in1002.0 mb 0.00 in0.0 mm 0.00 in0.0 mm 0.00 in0.0 mm
04:30 AM 44.2°F6.8°C 38.8°F3.8°C 81% Calm Calm -- 29.59 in1002.0 mb 0.00 in0.0 mm 0.00 in0.0 mm 0.00 in0.0 mm
04:10 AM 44.4°F6.9°C 38.9°F3.8°C 81% Calm Calm 11.0 mph17.7 kmh 29.60 in1002.4 mb 0.00 in0.0 mm 0.00 in0.0 mm 0.00 in0.0 mm
04:00 AM 44.8°F7.1°C 39.7°F4.3°C 82% 1.0 mph SW1.6 kmh SW 1.0 mph1.6 kmh 29.60 in1002.4 mb 0.00 in0.0 mm 0.00 in0.0 mm 0.00 in0.0 mm
03:40 AM 45.2°F7.3°C 38.4°F3.6°C 77% 4.0 mph SW6.4 kmh SW 7.0 mph11.3 kmh 29.60 in1002.4 mb 0.00 in0.0 mm 0.00 in0.0 mm 0.00 in0.0 mm
03:30 AM 45.2°F7.3°C 38.8°F3.8°C 78% 1.0 mph WSW1.6 kmh WSW 1.0 mph1.6 kmh 29.60 in1002.4 mb 0.00 in0.0 mm 0.00 in0.0 mm 0.00 in0.0 mm
03:10 AM 45.4°F7.4°C 39.0°F3.9°C 78% 7.0 mph S11.3 kmh S 11.0 mph17.7 kmh 29.59 in1002.0 mb 0.00 in0.0 mm 0.00 in0.0 mm 0.00 in0.0 mm
03:00 AM 44.6°F7.0°C 38.8°F3.8°C 80% 5.0 mph S8.0 kmh S 10.0 mph16.1 kmh 29.59 in1002.0 mb 0.00 in0.0 mm 0.00 in0.0 mm 0.00 in0.0 mm
02:40 AM 43.8°F6.6°C 38.7°F3.7°C 82% Calm Calm 7.0 mph11.3 kmh 29.59 in1002.0 mb 0.00 in0.0 mm 0.00 in0.0 mm 0.00 in0.0 mm
02:30 AM 43.3°F6.3°C 39.1°F3.9°C 85% 6.0 mph S9.7 kmh S 6.0 mph9.7 kmh 29.59 in1002.0 mb 0.00 in0.0 mm 0.00 in0.0 mm 0.00 in0.0 mm
02:10 AM 42.1°F5.6°C 38.2°F3.4°C 86% Calm Calm -- 29.60 in1002.4 mb 0.00 in0.0 mm 0.00 in0.0 mm 0.00 in0.0 mm
02:00 AM 42.5°F5.8°C 38.6°F3.7°C 86% Calm Calm -- 29.60 in1002.4 mb 0.00 in0.0 mm 0.00 in0.0 mm 0.00 in0.0 mm
01:40 AM 44.0°F6.7°C 39.8°F4.3°C 85% Calm Calm -- 29.61 in1002.7 mb 0.00 in0.0 mm 0.00 in0.0 mm 0.00 in0.0 mm
01:30 AM 44.3°F6.8°C 39.8°F4.3°C 84% Calm Calm -- 29.61 in1002.7 mb 0.00 in0.0 mm 0.00 in0.0 mm 0.00 in0.0 mm
01:09 AM 44.6°F7.0°C 40.1°F4.5°C 84% Calm Calm -- 29.60 in1002.4 mb 0.00 in0.0 mm 0.00 in0.0 mm 0.00 in0.0 mm
01:00 AM 44.4°F6.9°C 40.2°F4.6°C 85% Calm Calm -- 29.60 in1002.4 mb 0.00 in0.0 mm 0.00 in0.0 mm 0.00 in0.0 mm
12:40 AM 44.2°F6.8°C 40.6°F4.8°C 87% Calm Calm -- 29.60 in1002.4 mb 0.00 in0.0 mm 0.00 in0.0 mm 0.00 in0.0 mm
12:30 AM 43.8°F6.6°C 40.2°F4.6°C 87% Calm Calm -- 29.61 in1002.7 mb 0.00 in0.0 mm 0.00 in0.0 mm 0.00 in0.0 mm
12:09 AM 43.8°F6.6°C 39.6°F4.2°C 85% Calm Calm -- 29.61 in1002.7 mb 0.00 in0.0 mm 0.00 in0.0 mm 0.00 in0.0 mm
12:00 AM 44.4°F6.9°C 39.9°F4.4°C 84% Calm Calm -- 29.61 in1002.7 mb 0.00 in0.0 mm 0.00 in0.0 mm 0.00 in0.0 mm